sensor_id;sensor_type;location;lat;lon;timestamp;pressure;altitude;pressure_sealevel;temperature;humidity
59513;BME280;45330;51.634;5.562;2023-12-07T00:01:45;101916.84;;;-1.50;100.00
59513;BME280;45330;51.634;5.562;2023-12-07T00:04:10;101879.63;;;-1.75;100.00
59513;BME280;45330;51.634;5.562;2023-12-07T00:06:36;101915.50;;;-1.59;100.00
59513;BME280;45330;51.634;5.562;2023-12-07T00:09:01;101884.56;;;-1.78;100.00
59513;BME280;45330;51.634;5.562;2023-12-07T00:11:27;101910.53;;;-1.70;100.00
59513;BME280;45330;51.634;5.562;2023-12-07T00:13:52;101876.38;;;-2.01;100.00
59513;BME280;45330;51.634;5.562;2023-12-07T00:16:18;101916.38;;;-1.86;100.00
59513;BME280;45330;51.634;5.562;2023-12-07T00:18:43;101917.75;;;-1.92;100.00
59513;BME280;45330;51.634;5.562;2023-12-07T00:21:09;101877.06;;;-2.17;100.00
59513;BME280;45330;51.634;5.562;2023-12-07T00:23:34;101876.78;;;-2.21;100.00
59513;BME280;45330;51.634;5.562;2023-12-07T00:26:00;101912.59;;;-2.07;100.00
59513;BME280;45330;51.634;5.562;2023-12-07T00:28:25;101893.88;;;-2.20;100.00
59513;BME280;45330;51.634;5.562;2023-12-07T00:30:51;101922.47;;;-2.11;100.00
59513;BME280;45330;51.634;5.562;2023-12-07T00:33:17;101919.75;;;-2.14;100.00
59513;BME280;45330;51.634;5.562;2023-12-07T00:35:42;101916.22;;;-2.16;100.00
59513;BME280;45330;51.634;5.562;2023-12-07T00:38:08;101903.47;;;-2.16;100.00
59513;BME280;45330;51.634;5.562;2023-12-07T00:40:34;101912.69;;;-2.18;100.00
59513;BME280;45330;51.634;5.562;2023-12-07T00:43:02;101915.81;;;-2.22;100.00
59513;BME280;45330;51.634;5.562;2023-12-07T00:45:28;101887.31;;;-2.44;100.00
59513;BME280;45330;51.634;5.562;2023-12-07T00:47:53;101908.38;;;-2.33;100.00
59513;BME280;45330;51.634;5.562;2023-12-07T00:50:19;101897.91;;;-2.37;100.00
59513;BME280;45330;51.634;5.562;2023-12-07T00:52:44;101892.31;;;-2.45;100.00
59513;BME280;45330;51.634;5.562;2023-12-07T00:55:10;101933.09;;;-2.32;100.00
59513;BME280;45330;51.634;5.562;2023-12-07T00:57:35;101929.97;;;-2.28;100.00
59513;BME280;45330;51.634;5.562;2023-12-07T01:00:01;101898.88;;;-2.49;100.00
59513;BME280;45330;51.634;5.562;2023-12-07T01:02:26;101895.53;;;-2.48;100.00
59513;BME280;45330;51.634;5.562;2023-12-07T01:04:52;101888.97;;;-2.44;100.00
59513;BME280;45330;51.634;5.562;2023-12-07T01:07:18;101923.28;;;-2.26;100.00
59513;BME280;45330;51.634;5.562;2023-12-07T01:09:43;101918.59;;;-2.33;100.00
59513;BME280;45330;51.634;5.562;2023-12-07T01:12:08;101929.06;;;-2.28;100.00
59513;BME280;45330;51.634;5.562;2023-12-07T01:14:34;101902.50;;;-2.45;100.00
59513;BME280;45330;51.634;5.562;2023-12-07T01:16:59;101900.03;;;-2.44;100.00
59513;BME280;45330;51.634;5.562;2023-12-07T01:19:25;101932.50;;;-2.28;100.00
59513;BME280;45330;51.634;5.562;2023-12-07T01:21:50;101913.88;;;-2.40;100.00
59513;BME280;45330;51.634;5.562;2023-12-07T01:24:15;101925.13;;;-2.36;100.00
59513;BME280;45330;51.634;5.562;2023-12-07T01:26:41;101901.44;;;-2.49;100.00
59513;BME280;45330;51.634;5.562;2023-12-07T01:29:07;101900.44;;;-2.51;100.00
59513;BME280;45330;51.634;5.562;2023-12-07T01:31:32;101926.81;;;-2.37;100.00
59513;BME280;45330;51.634;5.562;2023-12-07T01:33:58;101933.09;;;-2.32;100.00
59513;BME280;45330;51.634;5.562;2023-12-07T01:36:23;101925.94;;;-2.37;100.00
59513;BME280;45330;51.634;5.562;2023-12-07T01:38:48;101930.81;;;-2.41;100.00
59513;BME280;45330;51.634;5.562;2023-12-07T01:41:14;101939.47;;;-2.38;100.00
59513;BME280;45330;51.634;5.562;2023-12-07T01:43:46;101914.75;;;-2.53;100.00
59513;BME280;45330;51.634;5.562;2023-12-07T01:46:12;101849.78;;;-2.86;100.00
59513;BME280;45330;51.634;5.562;2023-12-07T01:48:38;101938.09;;;-2.33;100.00
59513;BME280;45330;51.634;5.562;2023-12-07T01:51:03;101926.81;;;-2.37;100.00
59513;BME280;45330;51.634;5.562;2023-12-07T01:53:29;101935.66;;;-2.32;100.00
59513;BME280;45330;51.634;5.562;2023-12-07T01:55:55;101935.66;;;-2.32;100.00
59513;BME280;45330;51.634;5.562;2023-12-07T01:58:21;101942.50;;;-2.31;100.00
59513;BME280;45330;51.634;5.562;2023-12-07T02:00:47;101907.91;;;-2.54;100.00
59513;BME280;45330;51.634;5.562;2023-12-07T02:03:13;101910.44;;;-2.54;100.00
59513;BME280;45330;51.634;5.562;2023-12-07T02:05:43;101937.78;;;-2.38;100.00
59513;BME280;45330;51.634;5.562;2023-12-07T02:08:11;101936.53;;;-2.45;100.00
59513;BME280;45330;51.634;5.562;2023-12-07T02:10:36;101936.63;;;-2.43;100.00
59513;BME280;45330;51.634;5.562;2023-12-07T02:13:01;101939.38;;;-2.40;100.00
59513;BME280;45330;51.634;5.562;2023-12-07T02:15:28;101932.97;;;-2.20;100.00
59513;BME280;45330;51.634;5.562;2023-12-07T02:23:23;101918.88;;;-2.15;100.00
59513;BME280;45330;51.634;5.562;2023-12-07T02:25:52;101942.78;;;-2.13;100.00
59513;BME280;45330;51.634;5.562;2023-12-07T02:28:18;101953.88;;;-2.12;100.00
59513;BME280;45330;51.634;5.562;2023-12-07T02:30:44;101942.50;;;-2.17;100.00
59513;BME280;45330;51.634;5.562;2023-12-07T02:33:10;101949.97;;;-2.20;100.00
59513;BME280;45330;51.634;5.562;2023-12-07T02:35:37;101950.84;;;-2.20;100.00
59513;BME280;45330;51.634;5.562;2023-12-07T02:38:03;101948.00;;;-2.25;100.00
59513;BME280;45330;51.634;5.562;2023-12-07T02:40:31;101919.25;;;-2.35;100.00
59513;BME280;45330;51.634;5.562;2023-12-07T02:42:57;101942.41;;;-2.19;100.00
59513;BME280;45330;51.634;5.562;2023-12-07T02:45:24;101937.31;;;-2.19;100.00
59513;BME280;45330;51.634;5.562;2023-12-07T02:47:51;101945.91;;;-2.17;100.00
59513;BME280;45330;51.634;5.562;2023-12-07T02:50:16;101914.25;;;-2.34;100.00
59513;BME280;45330;51.634;5.562;2023-12-07T02:52:42;101908.28;;;-2.34;100.00
59513;BME280;45330;51.634;5.562;2023-12-07T02:55:07;101918.38;;;-2.22;100.00
59513;BME280;45330;51.634;5.562;2023-12-07T02:57:34;101928.38;;;-2.12;100.00
59513;BME280;45330;51.634;5.562;2023-12-07T02:59:59;101927.78;;;-2.08;100.00
59513;BME280;45330;51.634;5.562;2023-12-07T03:02:25;101888.59;;;-2.23;100.00
59513;BME280;45330;51.634;5.562;2023-12-07T03:04:51;101884.72;;;-2.17;100.00
59513;BME280;45330;51.634;5.562;2023-12-07T03:07:16;101899.03;;;-2.05;100.00
59513;BME280;45330;51.634;5.562;2023-12-07T03:09:42;101901.28;;;-1.97;100.00
59513;BME280;45330;51.634;5.562;2023-12-07T03:12:07;101907.63;;;-1.90;100.00
59513;BME280;45330;51.634;5.562;2023-12-07T03:14:33;101911.63;;;-1.80;100.00
59513;BME280;45330;51.634;5.562;2023-12-07T03:16:58;101932.19;;;-1.64;100.00
59513;BME280;45330;51.634;5.562;2023-12-07T03:19:24;101922.88;;;-1.63;100.00
59513;BME280;45330;51.634;5.562;2023-12-07T03:21:49;101910.59;;;-1.69;100.00
59513;BME280;45330;51.634;5.562;2023-12-07T03:24:15;101910.09;;;-1.63;100.00
59513;BME280;45330;51.634;5.562;2023-12-07T03:26:40;101937.47;;;-1.47;100.00
59513;BME280;45330;51.634;5.562;2023-12-07T03:29:08;101917.16;;;-1.59;100.00
59513;BME280;45330;51.634;5.562;2023-12-07T03:31:34;101935.00;;;-1.46;100.00
59513;BME280;45330;51.634;5.562;2023-12-07T03:33:59;101950.56;;;-1.41;100.00
59513;BME280;45330;51.634;5.562;2023-12-07T03:36:26;101917.25;;;-1.58;100.00
59513;BME280;45330;51.634;5.562;2023-12-07T03:38:52;101943.09;;;-1.38;100.00
59513;BME280;45330;51.634;5.562;2023-12-07T03:41:17;101946.47;;;-1.39;100.00
59513;BME280;45330;51.634;5.562;2023-12-07T03:43:42;101943.09;;;-1.38;100.00
59513;BME280;45330;51.634;5.562;2023-12-07T03:46:08;101909.50;;;-1.59;100.00
59513;BME280;45330;51.634;5.562;2023-12-07T03:48:33;101915.78;;;-1.54;100.00
59513;BME280;45330;51.634;5.562;2023-12-07T03:50:59;101866.22;;;-1.86;100.00
59513;BME280;45330;51.634;5.562;2023-12-07T03:53:25;101924.50;;;-1.50;100.00
59513;BME280;45330;51.634;5.562;2023-12-07T03:55:50;101947.50;;;-1.35;100.00
59513;BME280;45330;51.634;5.562;2023-12-07T03:58:16;101918.25;;;-1.56;100.00
59513;BME280;45330;51.634;5.562;2023-12-07T04:00:42;101947.84;;;-1.44;100.00
59513;BME280;45330;51.634;5.562;2023-12-07T04:03:07;101960.97;;;-1.38;100.00
59513;BME280;45330;51.634;5.562;2023-12-07T04:05:33;101959.03;;;-1.42;100.00
59513;BME280;45330;51.634;5.562;2023-12-07T04:07:59;101934.34;;;-1.57;100.00
59513;BME280;45330;51.634;5.562;2023-12-07T04:10:24;101904.28;;;-1.76;100.00
59513;BME280;45330;51.634;5.562;2023-12-07T04:12:50;101959.84;;;-1.43;100.00
59513;BME280;45330;51.634;5.562;2023-12-07T04:15:18;101976.19;;;-1.40;100.00
59513;BME280;45330;51.634;5.562;2023-12-07T04:17:43;101974.25;;;-1.44;100.00
59513;BME280;45330;51.634;5.562;2023-12-07T04:20:09;101968.28;;;-1.44;100.00
59513;BME280;45330;51.634;5.562;2023-12-07T04:22:34;101968.28;;;-1.44;100.00
59513;BME280;45330;51.634;5.562;2023-12-07T04:25:00;101978.66;;;-1.41;100.00
59513;BME280;45330;51.634;5.562;2023-12-07T04:27:25;101971.78;;;-1.42;100.00
59513;BME280;45330;51.634;5.562;2023-12-07T04:29:50;101975.16;;;-1.43;100.00
59513;BME280;45330;51.634;5.562;2023-12-07T04:32:16;101982.22;;;-1.39;100.00
59513;BME280;45330;51.634;5.562;2023-12-07T04:34:41;101940.22;;;-1.58;100.00
59513;BME280;45330;51.634;5.562;2023-12-07T04:37:06;101983.09;;;-1.39;100.00
59513;BME280;45330;51.634;5.562;2023-12-07T04:39:32;101958.31;;;-1.54;100.00
59513;BME280;45330;51.634;5.562;2023-12-07T04:41:57;101975.34;;;-1.40;100.00
59513;BME280;45330;51.634;5.562;2023-12-07T04:44:23;101966.69;;;-1.42;100.00
59513;BME280;45330;51.634;5.562;2023-12-07T04:46:50;101972.19;;;-1.36;100.00
59513;BME280;45330;51.634;5.562;2023-12-07T04:49:16;101941.13;;;-1.57;100.00
59513;BME280;45330;51.634;5.562;2023-12-07T04:51:41;101964.34;;;-1.39;100.00
59513;BME280;45330;51.634;5.562;2023-12-07T04:54:11;101967.94;;;-1.35;100.00
59513;BME280;45330;51.634;5.562;2023-12-07T04:56:37;101951.59;;;-1.52;100.00
59513;BME280;45330;51.634;5.562;2023-12-07T04:59:02;101979.25;;;-1.32;100.00
59513;BME280;45330;51.634;5.562;2023-12-07T05:01:28;101984.34;;;-1.32;100.00
59513;BME280;45330;51.634;5.562;2023-12-07T05:03:53;101939.19;;;-1.46;100.00
59513;BME280;45330;51.634;5.562;2023-12-07T05:06:18;101944.31;;;-1.46;100.00
59513;BME280;45330;51.634;5.562;2023-12-07T05:08:44;101932.34;;;-1.47;100.00
59513;BME280;45330;51.634;5.562;2023-12-07T05:11:09;101959.16;;;-1.26;100.00
59513;BME280;45330;51.634;5.562;2023-12-07T05:13:34;101926.66;;;-1.43;100.00
59513;BME280;45330;51.634;5.562;2023-12-07T05:16:00;101958.38;;;-1.25;100.00
59513;BME280;45330;51.634;5.562;2023-12-07T05:18:26;101937.38;;;-1.34;100.00
59513;BME280;45330;51.634;5.562;2023-12-07T05:20:51;101957.59;;;-1.24;100.00
59513;BME280;45330;51.634;5.562;2023-12-07T05:23:17;101963.50;;;-1.25;100.00
59513;BME280;45330;51.634;5.562;2023-12-07T05:25:43;101939.19;;;-1.46;100.00
59513;BME280;45330;51.634;5.562;2023-12-07T05:28:08;101961.38;;;-1.32;100.00
59513;BME280;45330;51.634;5.562;2023-12-07T05:30:34;101934.91;;;-1.47;100.00
59513;BME280;45330;51.634;5.562;2023-12-07T05:33:00;101936.75;;;-1.45;100.00
59513;BME280;45330;51.634;5.562;2023-12-07T05:35:25;101910.59;;;-1.56;100.00
59513;BME280;45330;51.634;5.562;2023-12-07T05:37:51;101950.34;;;-1.31;100.00
59513;BME280;45330;51.634;5.562;2023-12-07T05:40:16;101951.25;;;-1.30;100.00
59513;BME280;45330;51.634;5.562;2023-12-07T05:42:41;101947.00;;;-1.30;100.00
59513;BME280;45330;51.634;5.562;2023-12-07T05:45:07;101951.50;;;-1.26;100.00
59513;BME280;45330;51.634;5.562;2023-12-07T05:47:35;101932.03;;;-1.39;100.00
59513;BME280;45330;51.634;5.562;2023-12-07T05:50:01;101944.63;;;-1.27;100.00
59513;BME280;45330;51.634;5.562;2023-12-07T05:52:28;101930.16;;;-1.41;100.00
59513;BME280;45330;51.634;5.562;2023-12-07T05:54:53;101944.63;;;-1.27;100.00
59513;BME280;45330;51.634;5.562;2023-12-07T05:57:19;101942.78;;;-1.29;100.00
59513;BME280;45330;51.634;5.562;2023-12-07T05:59:44;101948.06;;;-1.26;100.00
59513;BME280;45330;51.634;5.562;2023-12-07T06:02:10;101938.47;;;-1.30;100.00
59513;BME280;45330;51.634;5.562;2023-12-07T06:04:36;101942.28;;;-1.24;100.00
59513;BME280;45330;51.634;5.562;2023-12-07T06:07:01;101935.81;;;-1.32;100.00
59513;BME280;45330;51.634;5.562;2023-12-07T06:09:27;101905.84;;;-1.49;100.00
59513;BME280;45330;51.634;5.562;2023-12-07T06:11:54;101928.94;;;-1.33;100.00
59513;BME280;45330;51.634;5.562;2023-12-07T06:14:19;101935.66;;;-1.35;100.00
59513;BME280;45330;51.634;5.562;2023-12-07T06:16:45;101910.06;;;-1.50;100.00
59513;BME280;45330;51.634;5.562;2023-12-07T06:19:10;101923.00;;;-1.47;100.00
59513;BME280;45330;51.634;5.562;2023-12-07T06:21:35;101957.38;;;-1.27;100.00
59513;BME280;45330;51.634;5.562;2023-12-07T06:24:01;101928.38;;;-1.42;100.00
59513;BME280;45330;51.634;5.562;2023-12-07T06:26:26;101955.66;;;-1.28;100.00
59513;BME280;45330;51.634;5.562;2023-12-07T06:28:51;101964.97;;;-1.28;100.00
59513;BME280;45330;51.634;5.562;2023-12-07T06:31:17;101945.75;;;-1.36;100.00
59513;BME280;45330;51.634;5.562;2023-12-07T06:33:47;101952.28;;;-1.27;100.00
59513;BME280;45330;51.634;5.562;2023-12-07T06:36:18;101956.53;;;-1.27;100.00
59513;BME280;45330;51.634;5.562;2023-12-07T06:38:44;101960.75;;;-1.28;100.00
59513;BME280;45330;51.634;5.562;2023-12-07T06:41:09;101930.06;;;-1.43;100.00
59513;BME280;45330;51.634;5.562;2023-12-07T06:43:35;101932.03;;;-1.39;100.00
59513;BME280;45330;51.634;5.562;2023-12-07T06:46:00;101947.19;;;-1.27;100.00
59513;BME280;45330;51.634;5.562;2023-12-07T06:48:26;101931.16;;;-1.39;100.00
59513;BME280;45330;51.634;5.562;2023-12-07T06:50:51;101934.22;;;-1.30;100.00
59513;BME280;45330;51.634;5.562;2023-12-07T06:53:17;101939.50;;;-1.27;100.00
59513;BME280;45330;51.634;5.562;2023-12-07T06:55:43;101921.13;;;-1.36;100.00
59513;BME280;45330;51.634;5.562;2023-12-07T06:58:09;101944.41;;;-1.16;100.00
59513;BME280;45330;51.634;5.562;2023-12-07T07:00:35;101936.75;;;-1.16;100.00
59513;BME280;45330;51.634;5.562;2023-12-07T07:03:01;101915.31;;;-1.33;100.00
59513;BME280;45330;51.634;5.562;2023-12-07T07:05:26;101913.19;;;-1.26;100.00
59513;BME280;45330;51.634;5.562;2023-12-07T07:07:52;101930.66;;;-1.18;100.00
59513;BME280;45330;51.634;5.562;2023-12-07T07:10:17;101915.56;;;-1.29;100.00
59513;BME280;45330;51.634;5.562;2023-12-07T07:12:43;101934.38;;;-1.13;100.00
59513;BME280;45330;51.634;5.562;2023-12-07T07:15:08;101894.69;;;-1.36;100.00
59513;BME280;45330;51.634;5.562;2023-12-07T07:17:34;101934.38;;;-1.13;100.00
59513;BME280;45330;51.634;5.562;2023-12-07T07:20:00;101900.94;;;-1.31;100.00
59513;BME280;45330;51.634;5.562;2023-12-07T07:22:25;101904.06;;;-1.22;100.00
59513;BME280;45330;51.634;5.562;2023-12-07T07:24:50;101931.03;;;-1.12;100.00
59513;BME280;45330;51.634;5.562;2023-12-07T07:27:16;101922.03;;;-1.21;100.00
59513;BME280;45330;51.634;5.562;2023-12-07T07:29:41;101936.84;;;-1.15;100.00
59513;BME280;45330;51.634;5.562;2023-12-07T07:32:06;101948.91;;;-1.12;100.00
59513;BME280;45330;51.634;5.562;2023-12-07T07:34:32;101935.41;;;-1.25;100.00
59513;BME280;45330;51.634;5.562;2023-12-07T07:36:58;101909.47;;;-1.31;100.00
59513;BME280;45330;51.634;5.562;2023-12-07T07:39:23;101940.72;;;-1.07;100.00
59513;BME280;45330;51.634;5.562;2023-12-07T07:41:48;101922.03;;;-1.21;100.00
59513;BME280;45330;51.634;5.562;2023-12-07T07:44:14;101953.59;;;-1.05;100.00
59513;BME280;45330;51.634;5.562;2023-12-07T07:46:42;101943.59;;;-1.15;100.00
59513;BME280;45330;51.634;5.562;2023-12-07T07:49:08;101937.69;;;-1.14;100.00
59513;BME280;45330;51.634;5.562;2023-12-07T07:51:33;101888.16;;;-1.46;100.00
59513;BME280;45330;51.634;5.562;2023-12-07T07:53:59;101947.31;;;-1.10;100.00
59513;BME280;45330;51.634;5.562;2023-12-07T07:56:25;101957.28;;;-1.00;100.00
59513;BME280;45330;51.634;5.562;2023-12-07T07:58:50;101959.94;;;-0.98;100.00
59513;BME280;45330;51.634;5.562;2023-12-07T08:01:16;101949.44;;;-1.03;100.00
59513;BME280;45330;51.634;5.562;2023-12-07T08:03:41;101955.09;;;-0.94;100.00
59513;BME280;45330;51.634;5.562;2023-12-07T08:06:07;101944.41;;;-1.01;100.00
59513;BME280;45330;51.634;5.562;2023-12-07T08:08:33;101958.69;;;-0.90;100.00
59513;BME280;45330;51.634;5.562;2023-12-07T08:10:58;101959.44;;;-0.93;100.00
59513;BME280;45330;51.634;5.562;2023-12-07T08:13:24;101944.41;;;-1.01;100.00
59513;BME280;45330;51.634;5.562;2023-12-07T08:15:49;101916.66;;;-1.10;100.00
59513;BME280;45330;51.634;5.562;2023-12-07T08:18:15;101937.38;;;-0.91;100.00
59513;BME280;45330;51.634;5.562;2023-12-07T08:20:40;101925.91;;;-0.97;100.00
59513;BME280;45330;51.634;5.562;2023-12-07T08:23:05;101912.88;;;-1.02;100.00
59513;BME280;45330;51.634;5.562;2023-12-07T08:25:31;101919.75;;;-1.01;100.00
59513;BME280;45330;51.634;5.562;2023-12-07T08:27:57;101951.50;;;-0.82;100.00
59513;BME280;45330;51.634;5.562;2023-12-07T08:30:22;101956.84;;;-0.78;100.00
59513;BME280;45330;51.634;5.562;2023-12-07T08:32:48;101961.34;;;-0.74;100.00
59513;BME280;45330;51.634;5.562;2023-12-07T08:35:13;101958.81;;;-0.74;100.00
59513;BME280;45330;51.634;5.562;2023-12-07T08:37:39;101909.09;;;-0.94;100.00
59513;BME280;45330;51.634;5.562;2023-12-07T08:40:05;101949.75;;;-0.68;100.00
59513;BME280;45330;51.634;5.562;2023-12-07T08:42:31;101950.53;;;-0.70;100.00
59513;BME280;45330;51.634;5.562;2023-12-07T08:44:57;101949.91;;;-0.65;100.00
59513;BME280;45330;51.634;5.562;2023-12-07T08:47:22;101950.78;;;-0.65;100.00
59513;BME280;45330;51.634;5.562;2023-12-07T08:49:48;101926.28;;;-0.76;100.00
59513;BME280;45330;51.634;5.562;2023-12-07T08:52:13;101940.75;;;-0.62;100.00
59513;BME280;45330;51.634;5.562;2023-12-07T08:54:39;101947.78;;;-0.58;100.00
59513;BME280;45330;51.634;5.562;2023-12-07T08:57:04;101944.59;;;-0.54;100.00
59513;BME280;45330;51.634;5.562;2023-12-07T08:59:29;101956.06;;;-0.47;100.00
59513;BME280;45330;51.634;5.562;2023-12-07T09:01:57;101934.91;;;-0.59;100.00
59513;BME280;45330;51.634;5.562;2023-12-07T09:04:23;101951.31;;;-0.41;100.00
59513;BME280;45330;51.634;5.562;2023-12-07T09:06:48;101915.44;;;-0.57;100.00
59513;BME280;45330;51.634;5.562;2023-12-07T09:09:13;101926.38;;;-0.45;100.00
59513;BME280;45330;51.634;5.562;2023-12-07T09:11:39;101954.13;;;-0.36;100.00
59513;BME280;45330;51.634;5.562;2023-12-07T09:14:05;101949.25;;;-0.31;100.00
59513;BME280;45330;51.634;5.562;2023-12-07T09:16:30;101911.66;;;-0.49;100.00
59513;BME280;45330;51.634;5.562;2023-12-07T09:18:55;101934.91;;;-0.29;100.00
59513;BME280;45330;51.634;5.562;2023-12-07T09:21:21;101908.72;;;-0.40;100.00
59513;BME280;45330;51.634;5.562;2023-12-07T09:23:46;101901.03;;;-0.40;100.00
59513;BME280;45330;51.634;5.562;2023-12-07T09:26:11;101931.19;;;-0.20;100.00
59513;BME280;45330;51.634;5.562;2023-12-07T09:28:37;101899.88;;;-0.30;100.00
59513;BME280;45330;51.634;5.562;2023-12-07T09:31:05;101948.47;;;-0.15;100.00
59513;BME280;45330;51.634;5.562;2023-12-07T09:33:30;101952.13;;;-0.10;100.00
59513;BME280;45330;51.634;5.562;2023-12-07T09:35:55;101945.59;;;-0.05;100.00
59513;BME280;45330;51.634;5.562;2023-12-07T09:38:21;101930.41;;;-0.02;100.00
59513;BME280;45330;51.634;5.562;2023-12-07T09:40:50;101933.22;;;0.03;100.00
59513;BME280;45330;51.634;5.562;2023-12-07T09:43:17;101906.25;;;-0.07;100.00
59513;BME280;45330;51.634;5.562;2023-12-07T09:45:44;101913.56;;;0.02;100.00
59513;BME280;45330;51.634;5.562;2023-12-07T09:48:10;101890.09;;;-0.06;100.00
59513;BME280;45330;51.634;5.562;2023-12-07T09:50:35;101887.31;;;-0.11;100.00
59513;BME280;45330;51.634;5.562;2023-12-07T09:53:02;101900.56;;;-0.02;100.00
59513;BME280;45330;51.634;5.562;2023-12-07T09:55:28;101903.81;;;0.11;100.00
59513;BME280;45330;51.634;5.562;2023-12-07T09:57:53;101905.81;;;0.16;100.00
59513;BME280;45330;51.634;5.562;2023-12-07T10:00:22;101899.97;;;0.19;100.00
59513;BME280;45330;51.634;5.562;2023-12-07T10:02:47;101873.16;;;0.12;100.00
59513;BME280;45330;51.634;5.562;2023-12-07T10:05:14;101891.25;;;0.32;100.00
59513;BME280;45330;51.634;5.562;2023-12-07T10:07:43;101871.25;;;0.25;100.00
59513;BME280;45330;51.634;5.562;2023-12-07T10:10:09;101859.59;;;0.30;100.00
59513;BME280;45330;51.634;5.562;2023-12-07T10:12:59;101872.84;;;0.56;100.00
59513;BME280;45330;51.634;5.562;2023-12-07T10:15:25;101872.06;;;0.57;100.00
59513;BME280;45330;51.634;5.562;2023-12-07T10:17:58;101868.22;;;0.65;100.00
59513;BME280;45330;51.634;5.562;2023-12-07T10:20:26;101865.22;;;0.74;100.00
59513;BME280;45330;51.634;5.562;2023-12-07T10:25:35;101828.50;;;0.73;100.00
59513;BME280;45330;51.634;5.562;2023-12-07T10:28:00;101830.50;;;0.79;100.00
59513;BME280;45330;51.634;5.562;2023-12-07T10:30:29;101849.25;;;0.96;100.00
59513;BME280;45330;51.634;5.562;2023-12-07T10:32:55;101845.06;;;0.98;100.00
59513;BME280;45330;51.634;5.562;2023-12-07T10:35:20;101834.69;;;0.95;100.00
59513;BME280;45330;51.634;5.562;2023-12-07T10:37:46;101836.72;;;1.02;100.00
59513;BME280;45330;51.634;5.562;2023-12-07T10:40:12;101821.22;;;0.99;100.00
59513;BME280;45330;51.634;5.562;2023-12-07T10:42:40;101789.56;;;0.80;100.00
59513;BME280;45330;51.634;5.562;2023-12-07T10:45:06;101825.94;;;0.91;100.00
59513;BME280;45330;51.634;5.562;2023-12-07T10:47:36;101812.13;;;0.88;100.00
59513;BME280;45330;51.634;5.562;2023-12-07T10:50:05;101820.53;;;0.85;100.00
59513;BME280;45330;51.634;5.562;2023-12-07T10:52:37;101808.38;;;0.81;100.00
59513;BME280;45330;51.634;5.562;2023-12-07T10:55:14;101809.41;;;0.84;100.00
59513;BME280;45330;51.634;5.562;2023-12-07T10:57:41;101812.41;;;0.94;100.00
59513;BME280;45330;51.634;5.562;2023-12-07T11:00:08;101770.97;;;0.84;100.00
59513;BME280;45330;51.634;5.562;2023-12-07T11:02:36;101805.47;;;1.09;100.00
59513;BME280;45330;51.634;5.562;2023-12-07T11:05:03;101798.00;;;1.14;100.00
59513;BME280;45330;51.634;5.562;2023-12-07T11:07:38;101807.06;;;1.25;100.00
59513;BME280;45330;51.634;5.562;2023-12-07T11:10:21;101777.34;;;1.11;100.00
59513;BME280;45330;51.634;5.562;2023-12-07T11:12:56;101783.72;;;1.19;100.00
59513;BME280;45330;51.634;5.562;2023-12-07T11:15:25;101754.28;;;1.11;100.00
59513;BME280;45330;51.634;5.562;2023-12-07T11:17:55;101782.53;;;1.30;100.00
59513;BME280;45330;51.634;5.562;2023-12-07T11:20:22;101772.66;;;1.38;100.00
59513;BME280;45330;51.634;5.562;2023-12-07T11:22:47;101740.63;;;1.30;100.00
59513;BME280;45330;51.634;5.562;2023-12-07T11:25:14;101755.69;;;1.42;100.00
59513;BME280;45330;51.634;5.562;2023-12-07T11:27:40;101755.09;;;1.47;100.00
59513;BME280;45330;51.634;5.562;2023-12-07T11:30:07;101751.00;;;1.51;100.00
59513;BME280;45330;51.634;5.562;2023-12-07T11:32:32;101744.56;;;1.41;100.00
59513;BME280;45330;51.634;5.562;2023-12-07T11:35:04;101666.28;;;0.92;100.00
59513;BME280;45330;51.634;5.562;2023-12-07T11:40:32;101726.91;;;1.10;100.00
59513;BME280;45330;51.634;5.562;2023-12-07T11:42:59;101724.09;;;1.05;100.00
59513;BME280;45330;51.634;5.562;2023-12-07T11:45:38;101734.22;;;1.02;100.00
59513;BME280;45330;51.634;5.562;2023-12-07T11:48:11;101706.09;;;0.85;100.00
59513;BME280;45330;51.634;5.562;2023-12-07T11:50:56;101714.31;;;0.96;100.00
59513;BME280;45330;51.634;5.562;2023-12-07T11:53:23;101686.31;;;0.83;100.00
59513;BME280;45330;51.634;5.562;2023-12-07T11:55:49;101716.13;;;0.99;100.00
59513;BME280;45330;51.634;5.562;2023-12-07T11:58:14;101709.38;;;1.01;100.00
59513;BME280;45330;51.634;5.562;2023-12-07T12:00:40;101673.53;;;0.83;100.00
59513;BME280;45330;51.634;5.562;2023-12-07T12:03:06;101707.25;;;1.10;100.00
59513;BME280;45330;51.634;5.562;2023-12-07T12:05:31;101702.41;;;1.16;100.00
59513;BME280;45330;51.634;5.562;2023-12-07T12:07:57;101652.44;;;0.89;100.00
59513;BME280;45330;51.634;5.562;2023-12-07T12:10:22;101699.47;;;1.27;100.00
59513;BME280;45330;51.634;5.562;2023-12-07T12:12:53;101702.25;;;1.31;100.00
59513;BME280;45330;51.634;5.562;2023-12-07T12:15:18;101688.69;;;1.34;100.00
59513;BME280;45330;51.634;5.562;2023-12-07T12:17:45;101651.28;;;1.19;100.00
59513;BME280;45330;51.634;5.562;2023-12-07T12:20:13;101659.47;;;1.30;100.00
59513;BME280;45330;51.634;5.562;2023-12-07T12:22:42;101680.66;;;1.46;100.00
59513;BME280;45330;51.634;5.562;2023-12-07T12:25:08;101652.91;;;1.37;100.00
59513;BME280;45330;51.634;5.562;2023-12-07T12:27:33;101645.34;;;1.40;100.00
59513;BME280;45330;51.634;5.562;2023-12-07T12:29:59;101648.41;;;1.51;100.00
59513;BME280;45330;51.634;5.562;2023-12-07T12:32:25;101656.56;;;1.62;100.00
59513;BME280;45330;51.634;5.562;2023-12-07T12:34:53;101651.81;;;1.71;100.00
59513;BME280;45330;51.634;5.562;2023-12-07T12:37:19;101649.25;;;1.71;100.00
59513;BME280;45330;51.634;5.562;2023-12-07T12:39:45;101640.63;;;1.69;100.00
59513;BME280;45330;51.634;5.562;2023-12-07T12:42:10;101641.63;;;1.73;100.00
59513;BME280;45330;51.634;5.562;2023-12-07T12:44:37;101644.00;;;1.68;100.00
59513;BME280;45330;51.634;5.562;2023-12-07T12:47:06;101609.38;;;1.58;100.00
59513;BME280;45330;51.634;5.562;2023-12-07T12:49:36;101633.13;;;1.74;100.00